sensor_id;sensor_type;location;lat;lon;timestamp;P1;durP1;ratioP1;P2;durP2;ratioP2
18804;SDS011;9530;48.930;9.526;2023-04-01T00:01:27;1.73;;;0.70;;
18804;SDS011;9530;48.930;9.526;2023-04-01T00:03:53;1.27;;;0.80;;
18804;SDS011;9530;48.930;9.526;2023-04-01T00:06:21;2.30;;;0.83;;
18804;SDS011;9530;48.930;9.526;2023-04-01T00:08:48;3.60;;;0.87;;
18804;SDS011;9530;48.930;9.526;2023-04-01T00:11:15;2.90;;;0.80;;
18804;SDS011;9530;48.930;9.526;2023-04-01T00:13:42;3.07;;;0.73;;
18804;SDS011;9530;48.930;9.526;2023-04-01T00:16:10;2.63;;;0.80;;
18804;SDS011;9530;48.930;9.526;2023-04-01T00:18:38;1.97;;;0.80;;
18804;SDS011;9530;48.930;9.526;2023-04-01T00:21:05;2.03;;;0.80;;
18804;SDS011;9530;48.930;9.526;2023-04-01T00:23:32;2.40;;;1.00;;
18804;SDS011;9530;48.930;9.526;2023-04-01T00:26:00;1.93;;;0.90;;
18804;SDS011;9530;48.930;9.526;2023-04-01T00:28:28;1.87;;;0.90;;
18804;SDS011;9530;48.930;9.526;2023-04-01T00:30:55;3.37;;;1.10;;
18804;SDS011;9530;48.930;9.526;2023-04-01T00:33:22;1.63;;;0.77;;
18804;SDS011;9530;48.930;9.526;2023-04-01T00:35:49;2.70;;;0.83;;
18804;SDS011;9530;48.930;9.526;2023-04-01T00:38:16;1.83;;;0.90;;
18804;SDS011;9530;48.930;9.526;2023-04-01T00:40:44;1.87;;;0.90;;
18804;SDS011;9530;48.930;9.526;2023-04-01T00:43:12;1.80;;;1.00;;
18804;SDS011;9530;48.930;9.526;2023-04-01T00:45:43;2.97;;;0.90;;
18804;SDS011;9530;48.930;9.526;2023-04-01T00:48:12;2.67;;;1.20;;
18804;SDS011;9530;48.930;9.526;2023-04-01T00:50:42;2.90;;;1.03;;
18804;SDS011;9530;48.930;9.526;2023-04-01T00:53:13;2.30;;;1.10;;
18804;SDS011;9530;48.930;9.526;2023-04-01T00:55:42;2.93;;;1.10;;
18804;SDS011;9530;48.930;9.526;2023-04-01T00:58:14;3.00;;;1.07;;
18804;SDS011;9530;48.930;9.526;2023-04-01T01:00:45;3.17;;;1.03;;
18804;SDS011;9530;48.930;9.526;2023-04-01T01:03:14;2.93;;;0.90;;
18804;SDS011;9530;48.930;9.526;2023-04-01T01:05:49;2.80;;;1.10;;
18804;SDS011;9530;48.930;9.526;2023-04-01T01:08:39;2.63;;;1.13;;
18804;SDS011;9530;48.930;9.526;2023-04-01T01:11:15;2.40;;;0.93;;
18804;SDS011;9530;48.930;9.526;2023-04-01T01:13:50;4.03;;;1.00;;
18804;SDS011;9530;48.930;9.526;2023-04-01T01:16:22;2.87;;;1.10;;
18804;SDS011;9530;48.930;9.526;2023-04-01T01:18:53;3.50;;;1.07;;
18804;SDS011;9530;48.930;9.526;2023-04-01T01:21:42;3.67;;;1.10;;
18804;SDS011;9530;48.930;9.526;2023-04-01T01:24:31;2.67;;;1.00;;
18804;SDS011;9530;48.930;9.526;2023-04-01T01:27:16;4.33;;;1.27;;
18804;SDS011;9530;48.930;9.526;2023-04-01T01:29:52;5.17;;;1.20;;
18804;SDS011;9530;48.930;9.526;2023-04-01T01:32:36;3.07;;;1.10;;
18804;SDS011;9530;48.930;9.526;2023-04-01T01:35:16;1.90;;;0.80;;
18804;SDS011;9530;48.930;9.526;2023-04-01T01:37:47;4.40;;;1.20;;
18804;SDS011;9530;48.930;9.526;2023-04-01T01:40:17;3.93;;;1.10;;
18804;SDS011;9530;48.930;9.526;2023-04-01T01:42:46;4.07;;;1.03;;
18804;SDS011;9530;48.930;9.526;2023-04-01T01:45:16;2.47;;;0.90;;
18804;SDS011;9530;48.930;9.526;2023-04-01T01:47:46;1.97;;;1.10;;
18804;SDS011;9530;48.930;9.526;2023-04-01T01:50:17;4.23;;;1.10;;
18804;SDS011;9530;48.930;9.526;2023-04-01T01:52:45;3.63;;;1.10;;
18804;SDS011;9530;48.930;9.526;2023-04-01T01:55:26;2.37;;;1.00;;
18804;SDS011;9530;48.930;9.526;2023-04-01T01:57:55;3.53;;;1.10;;
18804;SDS011;9530;48.930;9.526;2023-04-01T02:00:24;3.53;;;1.10;;
18804;SDS011;9530;48.930;9.526;2023-04-01T02:02:52;3.83;;;1.00;;
18804;SDS011;9530;48.930;9.526;2023-04-01T02:05:22;1.93;;;0.83;;
18804;SDS011;9530;48.930;9.526;2023-04-01T02:07:51;2.60;;;1.13;;
18804;SDS011;9530;48.930;9.526;2023-04-01T02:10:22;2.50;;;1.00;;
18804;SDS011;9530;48.930;9.526;2023-04-01T02:12:52;3.80;;;1.00;;
18804;SDS011;9530;48.930;9.526;2023-04-01T02:15:22;3.60;;;1.13;;
18804;SDS011;9530;48.930;9.526;2023-04-01T02:17:52;3.60;;;1.10;;
18804;SDS011;9530;48.930;9.526;2023-04-01T02:20:21;3.87;;;1.10;;
18804;SDS011;9530;48.930;9.526;2023-04-01T02:22:49;3.50;;;1.00;;
18804;SDS011;9530;48.930;9.526;2023-04-01T02:25:18;3.53;;;1.00;;
18804;SDS011;9530;48.930;9.526;2023-04-01T02:27:50;1.67;;;0.70;;
18804;SDS011;9530;48.930;9.526;2023-04-01T02:30:17;2.40;;;0.90;;
18804;SDS011;9530;48.930;9.526;2023-04-01T02:32:45;2.10;;;0.93;;
18804;SDS011;9530;48.930;9.526;2023-04-01T02:35:14;3.30;;;0.90;;
18804;SDS011;9530;48.930;9.526;2023-04-01T02:37:44;2.50;;;0.90;;
18804;SDS011;9530;48.930;9.526;2023-04-01T02:40:14;1.93;;;0.80;;
18804;SDS011;9530;48.930;9.526;2023-04-01T02:42:42;2.63;;;1.00;;
18804;SDS011;9530;48.930;9.526;2023-04-01T02:45:10;2.10;;;0.80;;
18804;SDS011;9530;48.930;9.526;2023-04-01T02:47:37;2.67;;;0.80;;
18804;SDS011;9530;48.930;9.526;2023-04-01T02:50:05;2.13;;;0.90;;
18804;SDS011;9530;48.930;9.526;2023-04-01T02:52:33;4.10;;;0.93;;
18804;SDS011;9530;48.930;9.526;2023-04-01T02:55:01;2.07;;;0.80;;
18804;SDS011;9530;48.930;9.526;2023-04-01T02:57:28;2.30;;;1.00;;
18804;SDS011;9530;48.930;9.526;2023-04-01T02:59:55;3.00;;;0.70;;
18804;SDS011;9530;48.930;9.526;2023-04-01T03:02:21;2.87;;;0.90;;
18804;SDS011;9530;48.930;9.526;2023-04-01T03:04:48;1.60;;;0.80;;
18804;SDS011;9530;48.930;9.526;2023-04-01T03:07:15;3.73;;;1.10;;
18804;SDS011;9530;48.930;9.526;2023-04-01T03:09:41;2.03;;;0.83;;
18804;SDS011;9530;48.930;9.526;2023-04-01T03:12:10;1.43;;;0.67;;
18804;SDS011;9530;48.930;9.526;2023-04-01T03:14:36;1.10;;;0.77;;
18804;SDS011;9530;48.930;9.526;2023-04-01T03:17:03;2.67;;;0.80;;
18804;SDS011;9530;48.930;9.526;2023-04-01T03:19:30;3.00;;;0.70;;
18804;SDS011;9530;48.930;9.526;2023-04-01T03:21:57;3.07;;;0.93;;
18804;SDS011;9530;48.930;9.526;2023-04-01T03:24:23;2.40;;;0.70;;
18804;SDS011;9530;48.930;9.526;2023-04-01T03:26:50;5.17;;;1.00;;
18804;SDS011;9530;48.930;9.526;2023-04-01T03:29:18;2.50;;;0.70;;
18804;SDS011;9530;48.930;9.526;2023-04-01T03:31:45;0.97;;;0.53;;
18804;SDS011;9530;48.930;9.526;2023-04-01T03:34:11;2.47;;;0.67;;
18804;SDS011;9530;48.930;9.526;2023-04-01T03:36:38;2.03;;;0.63;;
18804;SDS011;9530;48.930;9.526;2023-04-01T03:39:05;1.43;;;0.80;;
18804;SDS011;9530;48.930;9.526;2023-04-01T03:41:31;0.77;;;0.70;;
18804;SDS011;9530;48.930;9.526;2023-04-01T03:43:58;1.63;;;0.63;;
18804;SDS011;9530;48.930;9.526;2023-04-01T03:46:26;3.27;;;0.90;;
18804;SDS011;9530;48.930;9.526;2023-04-01T03:48:53;0.97;;;0.60;;
18804;SDS011;9530;48.930;9.526;2023-04-01T03:51:19;1.90;;;0.60;;
18804;SDS011;9530;48.930;9.526;2023-04-01T03:53:46;1.17;;;0.70;;
18804;SDS011;9530;48.930;9.526;2023-04-01T03:56:13;1.43;;;0.53;;
18804;SDS011;9530;48.930;9.526;2023-04-01T03:58:40;2.20;;;0.70;;
18804;SDS011;9530;48.930;9.526;2023-04-01T04:01:16;2.23;;;0.80;;
18804;SDS011;9530;48.930;9.526;2023-04-01T04:03:47;2.03;;;0.90;;
18804;SDS011;9530;48.930;9.526;2023-04-01T04:06:15;1.23;;;0.60;;
18804;SDS011;9530;48.930;9.526;2023-04-01T04:08:42;0.87;;;0.50;;
18804;SDS011;9530;48.930;9.526;2023-04-01T04:11:09;1.27;;;0.60;;
18804;SDS011;9530;48.930;9.526;2023-04-01T04:13:36;0.80;;;0.57;;
18804;SDS011;9530;48.930;9.526;2023-04-01T04:16:03;1.60;;;1.00;;
18804;SDS011;9530;48.930;9.526;2023-04-01T04:18:30;3.87;;;1.30;;
18804;SDS011;9530;48.930;9.526;2023-04-01T04:20:58;3.07;;;1.30;;
18804;SDS011;9530;48.930;9.526;2023-04-01T04:23:25;2.57;;;0.90;;
18804;SDS011;9530;48.930;9.526;2023-04-01T04:25:55;2.23;;;0.90;;
18804;SDS011;9530;48.930;9.526;2023-04-01T04:28:23;1.40;;;0.70;;
18804;SDS011;9530;48.930;9.526;2023-04-01T04:30:50;1.53;;;0.60;;
18804;SDS011;9530;48.930;9.526;2023-04-01T04:33:17;1.67;;;0.93;;
18804;SDS011;9530;48.930;9.526;2023-04-01T04:35:44;1.20;;;0.67;;
18804;SDS011;9530;48.930;9.526;2023-04-01T04:38:12;4.90;;;3.00;;
18804;SDS011;9530;48.930;9.526;2023-04-01T04:40:39;3.40;;;2.43;;
18804;SDS011;9530;48.930;9.526;2023-04-01T04:43:06;1.10;;;0.70;;
18804;SDS011;9530;48.930;9.526;2023-04-01T04:45:35;2.40;;;1.03;;
18804;SDS011;9530;48.930;9.526;2023-04-01T04:48:02;1.27;;;0.77;;
18804;SDS011;9530;48.930;9.526;2023-04-01T04:50:29;1.50;;;0.70;;
18804;SDS011;9530;48.930;9.526;2023-04-01T04:52:56;2.73;;;0.70;;
18804;SDS011;9530;48.930;9.526;2023-04-01T04:55:23;1.40;;;0.70;;
18804;SDS011;9530;48.930;9.526;2023-04-01T04:57:50;1.90;;;0.80;;
18804;SDS011;9530;48.930;9.526;2023-04-01T05:00:17;4.07;;;0.97;;
18804;SDS011;9530;48.930;9.526;2023-04-01T05:02:44;1.53;;;0.77;;
18804;SDS011;9530;48.930;9.526;2023-04-01T05:05:11;1.03;;;0.70;;
18804;SDS011;9530;48.930;9.526;2023-04-01T05:07:37;1.70;;;0.70;;
18804;SDS011;9530;48.930;9.526;2023-04-01T05:10:04;2.73;;;1.20;;
18804;SDS011;9530;48.930;9.526;2023-04-01T05:12:33;2.80;;;1.47;;
18804;SDS011;9530;48.930;9.526;2023-04-01T05:15:02;3.27;;;0.90;;
18804;SDS011;9530;48.930;9.526;2023-04-01T05:17:29;0.93;;;0.70;;
18804;SDS011;9530;48.930;9.526;2023-04-01T05:19:56;0.70;;;0.63;;
18804;SDS011;9530;48.930;9.526;2023-04-01T05:22:23;1.63;;;0.90;;
18804;SDS011;9530;48.930;9.526;2023-04-01T05:24:50;2.10;;;0.87;;
18804;SDS011;9530;48.930;9.526;2023-04-01T05:27:17;0.80;;;0.70;;
18804;SDS011;9530;48.930;9.526;2023-04-01T05:29:45;1.57;;;0.80;;
18804;SDS011;9530;48.930;9.526;2023-04-01T05:32:11;1.03;;;0.60;;
18804;SDS011;9530;48.930;9.526;2023-04-01T05:34:38;1.60;;;0.80;;
18804;SDS011;9530;48.930;9.526;2023-04-01T05:37:05;1.43;;;0.70;;
18804;SDS011;9530;48.930;9.526;2023-04-01T05:39:35;1.23;;;0.70;;
18804;SDS011;9530;48.930;9.526;2023-04-01T05:42:02;1.40;;;1.00;;
18804;SDS011;9530;48.930;9.526;2023-04-01T05:44:29;2.77;;;1.03;;
18804;SDS011;9530;48.930;9.526;2023-04-01T05:46:57;2.57;;;1.10;;
18804;SDS011;9530;48.930;9.526;2023-04-01T05:49:23;3.03;;;1.10;;
18804;SDS011;9530;48.930;9.526;2023-04-01T05:51:50;2.20;;;0.90;;
18804;SDS011;9530;48.930;9.526;2023-04-01T05:54:17;2.23;;;0.90;;
18804;SDS011;9530;48.930;9.526;2023-04-01T05:56:44;2.17;;;1.00;;
18804;SDS011;9530;48.930;9.526;2023-04-01T05:59:11;2.50;;;1.10;;
18804;SDS011;9530;48.930;9.526;2023-04-01T06:01:39;2.67;;;0.80;;
18804;SDS011;9530;48.930;9.526;2023-04-01T06:04:09;3.93;;;0.90;;
18804;SDS011;9530;48.930;9.526;2023-04-01T06:06:39;2.93;;;1.40;;
18804;SDS011;9530;48.930;9.526;2023-04-01T06:09:07;4.07;;;1.20;;
18804;SDS011;9530;48.930;9.526;2023-04-01T06:11:42;4.37;;;1.40;;
18804;SDS011;9530;48.930;9.526;2023-04-01T06:14:24;4.83;;;1.67;;
18804;SDS011;9530;48.930;9.526;2023-04-01T06:17:03;2.50;;;1.00;;
18804;SDS011;9530;48.930;9.526;2023-04-01T06:19:49;2.47;;;1.03;;
18804;SDS011;9530;48.930;9.526;2023-04-01T06:22:41;2.23;;;0.80;;
18804;SDS011;9530;48.930;9.526;2023-04-01T06:31:10;3.17;;;0.93;;
18804;SDS011;9530;48.930;9.526;2023-04-01T06:33:46;1.87;;;1.10;;
18804;SDS011;9530;48.930;9.526;2023-04-01T06:39:20;2.63;;;1.00;;
18804;SDS011;9530;48.930;9.526;2023-04-01T06:44:53;1.67;;;1.00;;
18804;SDS011;9530;48.930;9.526;2023-04-01T06:47:34;2.23;;;0.90;;
18804;SDS011;9530;48.930;9.526;2023-04-01T06:50:11;2.40;;;1.10;;
18804;SDS011;9530;48.930;9.526;2023-04-01T06:52:49;1.93;;;0.87;;
18804;SDS011;9530;48.930;9.526;2023-04-01T06:55:24;1.83;;;0.87;;
18804;SDS011;9530;48.930;9.526;2023-04-01T06:57:58;1.77;;;1.07;;
18804;SDS011;9530;48.930;9.526;2023-04-01T07:00:30;1.83;;;0.93;;
18804;SDS011;9530;48.930;9.526;2023-04-01T07:03:01;2.37;;;0.93;;
18804;SDS011;9530;48.930;9.526;2023-04-01T07:05:33;3.63;;;1.30;;
18804;SDS011;9530;48.930;9.526;2023-04-01T07:08:03;2.67;;;1.10;;
18804;SDS011;9530;48.930;9.526;2023-04-01T07:10:35;5.37;;;1.10;;
18804;SDS011;9530;48.930;9.526;2023-04-01T07:13:11;1.43;;;0.80;;
18804;SDS011;9530;48.930;9.526;2023-04-01T07:15:43;3.47;;;0.93;;
18804;SDS011;9530;48.930;9.526;2023-04-01T07:18:21;2.50;;;0.80;;
18804;SDS011;9530;48.930;9.526;2023-04-01T07:20:54;1.90;;;0.90;;
18804;SDS011;9530;48.930;9.526;2023-04-01T07:23:24;3.17;;;1.10;;
18804;SDS011;9530;48.930;9.526;2023-04-01T07:25:55;2.60;;;0.80;;
18804;SDS011;9530;48.930;9.526;2023-04-01T07:28:26;2.10;;;1.00;;
18804;SDS011;9530;48.930;9.526;2023-04-01T07:30:59;2.23;;;0.93;;
18804;SDS011;9530;48.930;9.526;2023-04-01T07:33:33;2.67;;;1.10;;
18804;SDS011;9530;48.930;9.526;2023-04-01T07:36:05;1.90;;;0.90;;
18804;SDS011;9530;48.930;9.526;2023-04-01T07:38:42;1.73;;;0.90;;
18804;SDS011;9530;48.930;9.526;2023-04-01T07:41:21;3.20;;;0.90;;
18804;SDS011;9530;48.930;9.526;2023-04-01T07:43:55;2.10;;;1.00;;
18804;SDS011;9530;48.930;9.526;2023-04-01T07:46:33;2.00;;;0.90;;
18804;SDS011;9530;48.930;9.526;2023-04-01T07:49:22;1.90;;;1.10;;
18804;SDS011;9530;48.930;9.526;2023-04-01T07:51:56;2.40;;;0.87;;
18804;SDS011;9530;48.930;9.526;2023-04-01T07:54:30;1.63;;;0.90;;
18804;SDS011;9530;48.930;9.526;2023-04-01T07:57:05;2.13;;;1.00;;
18804;SDS011;9530;48.930;9.526;2023-04-01T07:59:39;0.80;;;0.70;;
18804;SDS011;9530;48.930;9.526;2023-04-01T08:02:14;0.93;;;0.70;;
18804;SDS011;9530;48.930;9.526;2023-04-01T08:04:52;1.80;;;0.70;;
18804;SDS011;9530;48.930;9.526;2023-04-01T08:07:25;1.30;;;0.87;;
18804;SDS011;9530;48.930;9.526;2023-04-01T08:10:00;2.93;;;1.00;;
18804;SDS011;9530;48.930;9.526;2023-04-01T08:12:37;3.37;;;1.23;;
18804;SDS011;9530;48.930;9.526;2023-04-01T08:15:13;3.10;;;1.53;;
18804;SDS011;9530;48.930;9.526;2023-04-01T08:17:49;2.80;;;1.13;;
18804;SDS011;9530;48.930;9.526;2023-04-01T08:20:26;2.23;;;0.93;;
18804;SDS011;9530;48.930;9.526;2023-04-01T08:22:58;3.73;;;1.10;;
18804;SDS011;9530;48.930;9.526;2023-04-01T08:25:31;1.77;;;0.90;;
18804;SDS011;9530;48.930;9.526;2023-04-01T08:28:00;2.37;;;0.80;;
18804;SDS011;9530;48.930;9.526;2023-04-01T08:30:38;2.20;;;0.97;;
18804;SDS011;9530;48.930;9.526;2023-04-01T08:33:09;2.40;;;0.90;;
18804;SDS011;9530;48.930;9.526;2023-04-01T08:35:40;1.70;;;0.80;;
18804;SDS011;9530;48.930;9.526;2023-04-01T08:38:13;0.80;;;0.77;;
18804;SDS011;9530;48.930;9.526;2023-04-01T08:40:52;2.70;;;1.00;;
18804;SDS011;9530;48.930;9.526;2023-04-01T08:43:28;3.20;;;1.00;;
18804;SDS011;9530;48.930;9.526;2023-04-01T08:46:18;2.30;;;0.90;;
18804;SDS011;9530;48.930;9.526;2023-04-01T08:49:15;1.17;;;0.80;;
18804;SDS011;9530;48.930;9.526;2023-04-01T08:52:07;3.27;;;0.90;;
18804;SDS011;9530;48.930;9.526;2023-04-01T08:54:57;1.13;;;0.80;;
18804;SDS011;9530;48.930;9.526;2023-04-01T08:57:35;1.33;;;0.90;;
18804;SDS011;9530;48.930;9.526;2023-04-01T09:00:15;1.37;;;0.80;;
18804;SDS011;9530;48.930;9.526;2023-04-01T09:02:55;2.00;;;0.90;;
18804;SDS011;9530;48.930;9.526;2023-04-01T09:05:36;2.30;;;0.97;;
18804;SDS011;9530;48.930;9.526;2023-04-01T09:08:15;3.03;;;1.20;;
18804;SDS011;9530;48.930;9.526;2023-04-01T09:11:12;1.60;;;0.90;;
18804;SDS011;9530;48.930;9.526;2023-04-01T09:16:45;1.07;;;0.83;;
18804;SDS011;9530;48.930;9.526;2023-04-01T09:19:50;1.70;;;0.57;;
18804;SDS011;9530;48.930;9.526;2023-04-01T09:22:41;3.30;;;0.83;;
18804;SDS011;9530;48.930;9.526;2023-04-01T09:25:38;3.40;;;0.70;;
18804;SDS011;9530;48.930;9.526;2023-04-01T09:28:25;2.37;;;0.80;;
18804;SDS011;9530;48.930;9.526;2023-04-01T09:34:15;2.03;;;0.80;;
18804;SDS011;9530;48.930;9.526;2023-04-01T09:37:13;1.47;;;0.83;;
18804;SDS011;9530;48.930;9.526;2023-04-01T09:39:46;1.97;;;0.80;;
18804;SDS011;9530;48.930;9.526;2023-04-01T09:42:42;2.03;;;0.90;;
18804;SDS011;9530;48.930;9.526;2023-04-01T09:45:15;3.03;;;0.83;;
18804;SDS011;9530;48.930;9.526;2023-04-01T09:48:00;1.40;;;0.77;;
18804;SDS011;9530;48.930;9.526;2023-04-01T09:50:35;4.33;;;0.97;;
18804;SDS011;9530;48.930;9.526;2023-04-01T09:53:14;0.87;;;0.70;;
18804;SDS011;9530;48.930;9.526;2023-04-01T09:59:15;1.93;;;0.70;;
18804;SDS011;9530;48.930;9.526;2023-04-01T10:08:07;2.33;;;0.90;;
18804;SDS011;9530;48.930;9.526;2023-04-01T10:14:24;0.80;;;0.70;;
18804;SDS011;9530;48.930;9.526;2023-04-01T10:17:06;2.03;;;0.60;;
18804;SDS011;9530;48.930;9.526;2023-04-01T10:23:19;1.10;;;0.80;;
18804;SDS011;9530;48.930;9.526;2023-04-01T10:26:18;1.70;;;0.80;;
18804;SDS011;9530;48.930;9.526;2023-04-01T10:29:36;1.40;;;0.90;;
18804;SDS011;9530;48.930;9.526;2023-04-01T10:32:26;1.03;;;0.70;;
18804;SDS011;9530;48.930;9.526;2023-04-01T10:39:00;1.83;;;0.90;;
18804;SDS011;9530;48.930;9.526;2023-04-01T10:41:57;1.37;;;0.60;;
18804;SDS011;9530;48.930;9.526;2023-04-01T10:45:10;0.77;;;0.73;;
18804;SDS011;9530;48.930;9.526;2023-04-01T10:48:17;1.47;;;0.97;;
18804;SDS011;9530;48.930;9.526;2023-04-01T10:51:16;1.03;;;0.70;;
18804;SDS011;9530;48.930;9.526;2023-04-01T10:56:58;0.80;;;0.70;;
18804;SDS011;9530;48.930;9.526;2023-04-01T10:59:45;0.80;;;0.50;;
18804;SDS011;9530;48.930;9.526;2023-04-01T11:06:03;4.30;;;1.00;;
18804;SDS011;9530;48.930;9.526;2023-04-01T11:17:54;2.60;;;0.77;;
18804;SDS011;9530;48.930;9.526;2023-04-01T11:20:36;0.80;;;0.70;;
18804;SDS011;9530;48.930;9.526;2023-04-01T11:23:39;0.73;;;0.73;;
18804;SDS011;9530;48.930;9.526;2023-04-01T11:26:22;0.93;;;0.80;;
18804;SDS011;9530;48.930;9.526;2023-04-01T11:32:02;2.47;;;0.90;;
18804;SDS011;9530;48.930;9.526;2023-04-01T11:34:43;2.53;;;1.93;;
18804;SDS011;9530;48.930;9.526;2023-04-01T11:37:25;1.80;;;1.20;;
18804;SDS011;9530;48.930;9.526;2023-04-01T11:40:03;1.50;;;1.30;;
18804;SDS011;9530;48.930;9.526;2023-04-01T11:42:39;1.13;;;1.00;;
18804;SDS011;9530;48.930;9.526;2023-04-01T11:45:15;3.67;;;1.40;;
18804;SDS011;9530;48.930;9.526;2023-04-01T11:47:53;1.50;;;1.20;;
18804;SDS011;9530;48.930;9.526;2023-04-01T11:50:31;1.13;;;0.90;;
18804;SDS011;9530;48.930;9.526;2023-04-01T11:53:13;1.10;;;1.00;;
18804;SDS011;9530;48.930;9.526;2023-04-01T11:55:50;1.40;;;1.07;;
18804;SDS011;9530;48.930;9.526;2023-04-01T12:01:25;1.60;;;0.90;;
18804;SDS011;9530;48.930;9.526;2023-04-01T12:04:18;1.37;;;1.10;;
18804;SDS011;9530;48.930;9.526;2023-04-01T12:07:22;1.23;;;0.90;;
18804;SDS011;9530;48.930;9.526;2023-04-01T12:09:56;2.00;;;1.50;;
18804;SDS011;9530;48.930;9.526;2023-04-01T12:12:31;1.90;;;1.37;;
18804;SDS011;9530;48.930;9.526;2023-04-01T12:15:11;1.70;;;1.20;;
18804;SDS011;9530;48.930;9.526;2023-04-01T12:17:46;1.33;;;1.00;;
18804;SDS011;9530;48.930;9.526;2023-04-01T12:23:13;2.13;;;1.20;;
18804;SDS011;9530;48.930;9.526;2023-04-01T12:29:14;1.00;;;0.80;;
18804;SDS011;9530;48.930;9.526;2023-04-01T12:31:57;1.30;;;1.00;;
18804;SDS011;9530;48.930;9.526;2023-04-01T12:34:34;2.90;;;1.10;;
18804;SDS011;9530;48.930;9.526;2023-04-01T12:37:17;1.30;;;0.80;;
18804;SDS011;9530;48.930;9.526;2023-04-01T12:39:52;1.97;;;0.90;;
18804;SDS011;9530;48.930;9.526;2023-04-01T12:42:33;0.97;;;0.80;;
18804;SDS011;9530;48.930;9.526;2023-04-01T12:45:24;1.70;;;1.00;;
18804;SDS011;9530;48.930;9.526;2023-04-01T12:50:49;1.70;;;1.00;;
18804;SDS011;9530;48.930;9.526;2023-04-01T12:53:33;2.10;;;1.90;;
18804;SDS011;9530;48.930;9.526;2023-04-01T12:56:12;1.83;;;1.63;;
18804;SDS011;9530;48.930;9.526;2023-04-01T12:58:56;1.20;;;1.00;;
18804;SDS011;9530;48.930;9.526;2023-04-01T13:01:45;1.00;;;0.90;;
18804;SDS011;9530;48.930;9.526;2023-04-01T13:04:30;1.20;;;0.70;;
18804;SDS011;9530;48.930;9.526;2023-04-01T13:07:16;1.67;;;1.10;;
18804;SDS011;9530;48.930;9.526;2023-04-01T13:10:04;0.93;;;0.70;;
18804;SDS011;9530;48.930;9.526;2023-04-01T13:12:44;0.83;;;0.70;;
18804;SDS011;9530;48.930;9.526;2023-04-01T13:15:28;0.70;;;0.60;;
18804;SDS011;9530;48.930;9.526;2023-04-01T13:18:05;2.20;;;0.73;;
18804;SDS011;9530;48.930;9.526;2023-04-01T13:20:42;0.90;;;0.70;;
18804;SDS011;9530;48.930;9.526;2023-04-01T13:23:21;0.70;;;0.70;;
18804;SDS011;9530;48.930;9.526;2023-04-01T13:26:00;0.97;;;0.83;;
18804;SDS011;9530;48.930;9.526;2023-04-01T13:28:35;1.30;;;0.90;;
18804;SDS011;9530;48.930;9.526;2023-04-01T13:31:05;1.53;;;1.00;;
18804;SDS011;9530;48.930;9.526;2023-04-01T13:33:38;0.70;;;0.70;;
18804;SDS011;9530;48.930;9.526;2023-04-01T13:36:11;0.93;;;0.70;;
18804;SDS011;9530;48.930;9.526;2023-04-01T13:39:03;1.10;;;0.50;;
18804;SDS011;9530;48.930;9.526;2023-04-01T13:41:41;1.53;;;0.53;;
18804;SDS011;9530;48.930;9.526;2023-04-01T13:44:27;0.80;;;0.80;;
18804;SDS011;9530;48.930;9.526;2023-04-01T13:47:03;0.60;;;0.60;;
18804;SDS011;9530;48.930;9.526;2023-04-01T13:52:50;2.80;;;0.80;;
18804;SDS011;9530;48.930;9.526;2023-04-01T13:55:47;6.80;;;3.60;;
18804;SDS011;9530;48.930;9.526;2023-04-01T13:58:23;5.57;;;2.90;;
18804;SDS011;9530;48.930;9.526;2023-04-01T14:01:05;1.47;;;1.23;;
18804;SDS011;9530;48.930;9.526;2023-04-01T14:03:44;1.40;;;0.93;;
18804;SDS011;9530;48.930;9.526;2023-04-01T14:06:27;1.43;;;0.80;;
18804;SDS011;9530;48.930;9.526;2023-04-01T14:09:08;1.20;;;0.70;;
18804;SDS011;9530;48.930;9.526;2023-04-01T14:11:48;1.50;;;1.00;;
18804;SDS011;9530;48.930;9.526;2023-04-01T14:14:21;2.87;;;1.00;;
18804;SDS011;9530;48.930;9.526;2023-04-01T14:17:10;1.97;;;1.80;;
18804;SDS011;9530;48.930;9.526;2023-04-01T14:19:48;1.90;;;1.70;;
18804;SDS011;9530;48.930;9.526;2023-04-01T14:22:26;1.50;;;1.40;;
18804;SDS011;9530;48.930;9.526;2023-04-01T14:25:10;1.93;;;1.00;;
18804;SDS011;9530;48.930;9.526;2023-04-01T14:28:10;0.73;;;0.70;;
18804;SDS011;9530;48.930;9.526;2023-04-01T14:30:51;0.80;;;0.80;;
18804;SDS011;9530;48.930;9.526;2023-04-01T14:33:31;1.70;;;0.90;;
18804;SDS011;9530;48.930;9.526;2023-04-01T14:36:22;3.10;;;1.13;;
18804;SDS011;9530;48.930;9.526;2023-04-01T14:39:00;1.50;;;1.20;;
18804;SDS011;9530;48.930;9.526;2023-04-01T14:41:42;0.90;;;0.90;;
18804;SDS011;9530;48.930;9.526;2023-04-01T14:44:27;1.10;;;0.97;;
18804;SDS011;9530;48.930;9.526;2023-04-01T14:47:20;0.87;;;0.87;;
18804;SDS011;9530;48.930;9.526;2023-04-01T14:50:05;1.23;;;1.13;;
18804;SDS011;9530;48.930;9.526;2023-04-01T14:52:36;2.07;;;1.20;;
18804;SDS011;9530;48.930;9.526;2023-04-01T14:55:15;1.47;;;1.10;;
18804;SDS011;9530;48.930;9.526;2023-04-01T14:57:57;1.50;;;1.10;;
18804;SDS011;9530;48.930;9.526;2023-04-01T15:00:26;1.20;;;1.00;;
18804;SDS011;9530;48.930;9.526;2023-04-01T15:03:01;2.10;;;1.40;;
18804;SDS011;9530;48.930;9.526;2023-04-01T15:05:38;2.30;;;1.43;;
18804;SDS011;9530;48.930;9.526;2023-04-01T15:08:14;2.33;;;1.10;;
18804;SDS011;9530;48.930;9.526;2023-04-01T15:10:48;4.03;;;1.13;;
18804;SDS011;9530;48.930;9.526;2023-04-01T15:16:23;1.50;;;1.10;;
18804;SDS011;9530;48.930;9.526;2023-04-01T15:18:56;1.43;;;1.20;;
18804;SDS011;9530;48.930;9.526;2023-04-01T15:21:42;2.00;;;1.37;;
18804;SDS011;9530;48.930;9.526;2023-04-01T15:24:18;1.80;;;1.30;;
18804;SDS011;9530;48.930;9.526;2023-04-01T15:26:54;2.23;;;1.40;;
18804;SDS011;9530;48.930;9.526;2023-04-01T15:29:52;1.37;;;1.10;;
18804;SDS011;9530;48.930;9.526;2023-04-01T15:32:31;1.33;;;1.20;;
18804;SDS011;9530;48.930;9.526;2023-04-01T15:35:14;2.23;;;1.03;;
18804;SDS011;9530;48.930;9.526;2023-04-01T15:37:53;1.47;;;1.20;;
18804;SDS011;9530;48.930;9.526;2023-04-01T15:40:22;1.57;;;1.30;;
18804;SDS011;9530;48.930;9.526;2023-04-01T15:42:57;2.67;;;1.00;;
18804;SDS011;9530;48.930;9.526;2023-04-01T15:45:31;1.83;;;1.53;;
18804;SDS011;9530;48.930;9.526;2023-04-01T15:48:16;2.00;;;1.30;;
18804;SDS011;9530;48.930;9.526;2023-04-01T15:50:54;1.60;;;1.40;;
18804;SDS011;9530;48.930;9.526;2023-04-01T15:53:41;2.93;;;1.53;;
18804;SDS011;9530;48.930;9.526;2023-04-01T15:59:13;3.63;;;2.67;;
18804;SDS011;9530;48.930;9.526;2023-04-01T16:01:57;2.43;;;2.00;;
18804;SDS011;9530;48.930;9.526;2023-04-01T16:04:31;5.50;;;3.00;;
18804;SDS011;9530;48.930;9.526;2023-04-01T16:07:17;4.40;;;3.20;;
18804;SDS011;9530;48.930;9.526;2023-04-01T16:09:56;4.40;;;2.70;;
18804;SDS011;9530;48.930;9.526;2023-04-01T16:12:36;4.37;;;2.77;;
18804;SDS011;9530;48.930;9.526;2023-04-01T16:15:14;5.33;;;2.60;;
18804;SDS011;9530;48.930;9.526;2023-04-01T16:17:54;2.13;;;1.90;;
18804;SDS011;9530;48.930;9.526;2023-04-01T16:20:46;2.60;;;1.20;;
18804;SDS011;9530;48.930;9.526;2023-04-01T16:23:20;2.20;;;1.50;;
18804;SDS011;9530;48.930;9.526;2023-04-01T16:25:53;1.40;;;1.10;;
18804;SDS011;9530;48.930;9.526;2023-04-01T16:28:30;1.97;;;1.13;;
18804;SDS011;9530;48.930;9.526;2023-04-01T16:31:03;1.53;;;1.13;;
18804;SDS011;9530;48.930;9.526;2023-04-01T16:33:39;1.10;;;0.90;;
18804;SDS011;9530;48.930;9.526;2023-04-01T16:36:17;1.97;;;0.97;;
18804;SDS011;9530;48.930;9.526;2023-04-01T16:38:52;1.90;;;1.00;;
18804;SDS011;9530;48.930;9.526;2023-04-01T16:41:24;1.50;;;1.10;;
18804;SDS011;9530;48.930;9.526;2023-04-01T16:43:55;1.47;;;1.13;;
18804;SDS011;9530;48.930;9.526;2023-04-01T16:46:30;1.73;;;1.33;;
18804;SDS011;9530;48.930;9.526;2023-04-01T16:49:03;1.00;;;0.90;;
18804;SDS011;9530;48.930;9.526;2023-04-01T16:51:44;10.63;;;3.97;;
18804;SDS011;9530;48.930;9.526;2023-04-01T16:54:14;8.83;;;4.53;;
18804;SDS011;9530;48.930;9.526;2023-04-01T16:56:54;3.43;;;2.33;;
18804;SDS011;9530;48.930;9.526;2023-04-01T16:59:22;2.57;;;1.67;;
18804;SDS011;9530;48.930;9.526;2023-04-01T17:01:53;2.27;;;1.40;;
18804;SDS011;9530;48.930;9.526;2023-04-01T17:04:29;2.03;;;1.63;;
18804;SDS011;9530;48.930;9.526;2023-04-01T17:07:04;3.30;;;1.50;;
18804;SDS011;9530;48.930;9.526;2023-04-01T17:09:42;3.27;;;1.77;;